Burnet, TX

9:55 PM CDT on June 02, 2015 (GMT -0500)
Horseshoe Bay | | Change Station
CLOSE
Current Station
Airport
Location: Horseshoe Bay,
Elevation: 1093 ft
Nearby Weather Stations

Elev 1093 ft 30.53 °N, 98.36 °W | Updated 20 minutes ago

Clear
Clear
77 °F
Feels Like 77 °F
N
6
Wind Variable Wind from South

Today
High -- | Low -- °F
--% Chance of Precip.
Yesterday
High -- | Low -- °F
Precip. -- in
6:30 AM 8:31 PM
Full, 100% visible
Pressure 29.95 in
Visibility 10.0 miles
Clouds Clear
Dew Point 65 °F
Humidity 67%
Rainfall 0.00 in
Snow Depth Not available.
UV 0 out of 12
Pollen 4.60 out of 12
Air Quality Not available.
Flu Activity Local Activity
METAR KDZB 030235Z AUTO 17005KT 10SM CLR 25/19 A2995 RMK AO2 T02500185

More Conditions Fewer Conditions

Pressure 29.95 in
Visibility 10.0 miles
Clouds Clear
Dew Point 65 °F
Humidity 67%
Rainfall 0.00 in
Snow Depth Not available.
UV 0 out of 12
Pollen 4.60 out of 12
Air Quality Not available.
Flu Activity Local Activity
METAR KDZB 030235Z AUTO 17005KT 10SM CLR 25/19 A2995 RMK AO2 T02500185

More Conditions Fewer Conditions

10-Day Weather Forecast

Almanac

Astronomy

Jun. 02, 2015 Rise Set
Actual Time
Civil Twilight
Nautical Twilight
Astronomical Twilight
Moon
Length of Visible Light
Length of Day
Tomorrow will be .
, % of the Moon is Illuminated

Today's Extremes

State Highs State Lows

Community

WunderPhotos

Upload Photos

1,826,126 photos uploaded!

WunderBlogs® & News

Nearby

Air Quality

  Air Quality AQ Index Pollutant
Not available.

Snow Depth

Station Depth Elevation

Earthquake Activity

City Distance Mag. Time & Date
Minimum magnitude displayed is 2.5.

Coastal Water Temperatures

Place Temperature

Stations

Nearby Weather Stations

Station Location Temp. Windchill Dew Point Humidity Wind Precip. Elev Updated Type